EIKY/KIR METAR and TAF weather

Enter ICAO airport designator
Station Type Date Time Source
EIKY METAR 2020/07/05 16:30 UTC NOAA

EIKY 051630Z 29014G26KT 250V330 9999 FEW028 BKN048 15/09 Q1016


Station Type Date Time Source
EIKY Decoded METAR 2020/07/05 16:30 UTC NOAA

Station name not available
Jul 05, 2020 - 12:30 PM EDT / 2020.07.05 1630 UTC
Wind: from the WNW (290 degrees) at 16 MPH (14 KT) gusting to 30 MPH (26 KT) (direction variable):0
Visibility: greater than 7 mile(s):0
Sky conditions: mostly cloudy
Temperature: 59 F (15 C)
Dew Point: 48 F (9 C)
Relative Humidity: 67%
Pressure (altimeter): 30.00 in. Hg (1016 hPa)
ob: EIKY 051630Z 29014G26KT 250V330 9999 FEW028 BKN048 15/09 Q1016
cycle: 16

Station Type Date Time Source
EIKY TAF UTC NOAA

Error!

Example: see airport list